Time;durP1;ratioP1;P1;durP2;ratioP2;P2;SDS_P1;SDS_P2;PMS_P1;PMS_P2;Temp;Humidity;BMP_temperature;BMP_pressure;BME280_temperature;BME280_humidity;BME280_pressure;Samples;Min_cycle;Max_cycle;Signal;HPM_P1;HPM_P2
2021/12/24 00:00:24;;;;;;;61.63;29.23;;;;;;;-1.83;100.00;100035.22;5590625;31;34150;-68
2021/12/24 00:03:27;;;;;;;60.38;27.65;;;;;;;-1.82;100.00;100028.25;5589679;31;34883;-68
2021/12/24 00:06:30;;;;;;;58.80;27.77;;;;;;;-1.76;99.81;100022.66;5590608;31;33995;-68
2021/12/24 00:09:34;;;;;;;59.97;28.83;;;;;;;-1.61;97.92;100044.25;5590451;31;34446;-68
2021/12/24 00:12:40;;;;;;;60.20;29.83;;;;;;;-1.68;96.59;100036.00;5590541;31;33954;-68
2021/12/24 00:16:01;;;;;;;62.50;29.02;;;;;;;-1.72;97.50;100033.69;5589749;31;34571;-68
2021/12/24 00:38:34;;;;;;;53.83;28.08;;;;;;;-1.85;96.29;99955.66;5590473;31;34349;-68
2021/12/24 00:41:37;;;;;;;52.42;27.48;;;;;;;-1.77;97.54;99962.03;5589429;31;34008;-68
2021/12/24 00:44:40;;;;;;;50.28;24.85;;;;;;;-1.70;96.15;99965.06;5590251;31;34049;-68
2021/12/24 00:47:44;;;;;;;57.20;26.67;;;;;;;-1.72;96.34;99951.31;5589458;31;34635;-68
2021/12/24 00:57:20;;;;;;;50.55;24.92;;;;;;;-1.57;95.10;99965.06;5590200;31;34380;-68
2021/12/24 01:00:26;;;;;;;52.50;28.27;;;;;;;-1.50;95.36;99928.12;5589365;31;34529;-68
2021/12/24 01:03:28;;;;;;;55.35;26.48;;;;;;;-1.43;94.46;99933.78;5590113;31;34632;-68
2021/12/24 01:06:31;;;;;;;56.47;26.87;;;;;;;-1.65;95.54;99916.19;5590053;31;34459;-68
2021/12/24 01:09:34;;;;;;;60.63;28.60;;;;;;;-1.68;96.26;99916.38;5590030;31;33913;-68
2021/12/24 01:12:37;;;;;;;64.15;28.87;;;;;;;-1.77;98.02;99896.19;5576472;31;34480;-68
2021/12/24 01:15:51;;;;;;;62.55;31.85;;;;;;;-1.74;98.32;99887.34;5589977;31;33898;-68
2021/12/24 01:19:04;;;;;;;60.80;29.15;;;;;;;-1.58;98.86;99878.41;5590258;31;34071;-68
2021/12/24 01:38:24;;;;;;;66.53;30.45;;;;;;;-1.79;100.00;99815.66;5589656;31;35419;-68
2021/12/24 01:44:48;;;;;;;63.97;29.83;;;;;;;-1.62;100.00;99819.75;5589884;31;34125;-68
2021/12/24 01:47:58;;;;;;;63.92;31.52;;;;;;;-1.64;100.00;99806.00;5590009;31;34586;-68
2021/12/24 01:51:01;;;;;;;59.93;30.30;;;;;;;-1.58;100.00;99841.16;5589606;31;34122;-68
2021/12/24 01:54:05;;;;;;;61.92;30.42;;;;;;;-1.61;100.00;99847.41;5589611;31;34480;-68
2021/12/24 01:57:11;;;;;;;67.62;32.30;;;;;;;-1.72;100.00;99810.06;5589980;31;33989;-68
2021/12/24 02:00:18;;;;;;;64.43;31.65;;;;;;;-1.84;100.00;99789.16;5588906;31;33889;-68
2021/12/24 02:03:21;;;;;;;68.45;34.08;;;;;;;-1.69;100.00;99800.28;5589094;31;35272;-68
2021/12/24 02:06:24;;;;;;;70.85;35.40;;;;;;;-1.70;100.00;99821.22;5589599;31;35152;-68
2021/12/24 02:09:27;;;;;;;71.93;37.13;;;;;;;-1.62;100.00;99805.91;5589439;31;34837;-68
2021/12/24 02:12:32;;;;;;;69.47;36.25;;;;;;;-1.53;100.00;99772.28;5588674;31;34633;-68
2021/12/24 02:28:38;;;;;;;61.45;30.50;;;;;;;-1.38;100.00;99754.78;5589052;31;33940;-68
2021/12/24 02:31:41;;;;;;;64.95;30.85;;;;;;;-1.29;100.00;99767.16;5589112;31;33914;-68
2021/12/24 02:34:44;;;;;;;67.82;31.60;;;;;;;-1.33;100.00;99771.75;5589724;31;33952;-68
2021/12/24 02:37:49;;;;;;;67.78;33.15;;;;;;;-1.44;100.00;99742.19;5589231;31;33982;-68
2021/12/24 02:40:53;;;;;;;63.22;32.58;;;;;;;-1.48;100.00;99730.34;5589098;31;35414;-68
2021/12/24 02:43:55;;;;;;;66.82;33.17;;;;;;;-1.32;100.00;99736.97;5589117;31;34530;-68
2021/12/24 02:56:35;;;;;;;67.32;30.65;;;;;;;-1.38;100.00;99700.97;5588970;31;34554;-68
2021/12/24 02:59:47;;;;;;;70.55;33.40;;;;;;;-1.24;100.00;99700.00;5588768;31;34173;-68
2021/12/24 03:02:50;;;;;;;60.65;31.60;;;;;;;-1.32;100.00;99684.09;5588707;31;33829;-68
2021/12/24 03:05:54;;;;;;;70.50;32.28;;;;;;;-1.27;100.00;99694.19;5588927;31;34529;-68
2021/12/24 03:08:57;;;;;;;63.65;31.85;;;;;;;-1.17;100.00;99703.84;5587866;31;35265;-68
2021/12/24 03:12:00;;;;;;;65.62;31.83;;;;;;;-1.13;100.00;99715.69;5588766;31;34257;-68
2021/12/24 03:15:04;;;;;;;65.90;32.05;;;;;;;-1.12;100.00;99737.34;5588915;31;34021;-68
2021/12/24 03:18:07;;;;;;;66.53;32.75;;;;;;;-1.20;100.00;99753.47;5588842;31;33970;-68
2021/12/24 03:27:16;;;;;;;61.90;30.30;;;;;;;-1.40;100.00;99743.63;5587556;31;35256;-69
2021/12/24 03:30:19;;;;;;;63.87;31.77;;;;;;;-1.43;100.00;99746.47;5588060;31;33870;-68
2021/12/24 03:33:22;;;;;;;66.68;33.08;;;;;;;-1.40;100.00;99723.66;5588238;31;33895;-68
2021/12/24 03:36:26;;;;;;;65.47;32.08;;;;;;;-1.29;100.00;99709.91;5587315;31;34602;-68
2021/12/24 03:39:30;;;;;;;69.03;35.28;;;;;;;-1.41;100.00;99688.22;5588511;31;34597;-69
2021/12/24 03:42:37;;;;;;;67.70;33.13;;;;;;;-1.47;100.00;99691.22;5588287;31;34199;-69
2021/12/24 03:45:55;;;;;;;62.75;31.25;;;;;;;-1.38;100.00;99693.19;5587390;31;33881;-70
2021/12/24 03:49:03;;;;;;;63.30;32.97;;;;;;;-1.31;100.00;99683.97;5587903;31;33996;-70
2021/12/24 03:55:30;;;;;;;67.28;32.20;;;;;;;-1.22;100.00;99666.91;5588189;31;34670;-70
2021/12/24 03:58:32;;;;;;;64.85;33.33;;;;;;;-1.15;100.00;99654.25;5587807;31;33933;-70
2021/12/24 04:01:36;;;;;;;71.35;36.47;;;;;;;-1.22;100.00;99653.06;5588007;31;34621;-69
2021/12/24 04:04:41;;;;;;;72.45;35.75;;;;;;;-1.34;100.00;99628.75;5588682;31;34429;-69
2021/12/24 04:07:47;;;;;;;71.87;35.72;;;;;;;-1.33;100.00;99627.81;5590597;31;33870;-69
2021/12/24 04:10:53;;;;;;;71.12;35.90;;;;;;;-1.31;100.00;99620.72;5590905;31;34174;-69
2021/12/24 04:13:59;;;;;;;76.78;36.95;;;;;;;-1.34;100.00;99607.94;5590048;31;34838;-68
2021/12/24 04:17:04;;;;;;;71.10;37.03;;;;;;;-1.40;100.00;99601.38;5590864;31;34005;-68
2021/12/24 04:26:39;;;;;;;71.85;34.33;;;;;;;-1.47;100.00;99599.34;5590411;31;33847;-68
2021/12/24 04:29:42;;;;;;;72.35;33.58;;;;;;;-1.48;100.00;99602.91;5590372;31;33997;-68
2021/12/24 05:03:27;;;;;;;66.55;33.70;;;;;;;-1.45;100.00;99595.69;5590152;31;33850;-68
2021/12/24 05:06:36;;;;;;;74.03;35.17;;;;;;;-1.42;100.00;99586.84;5590415;31;33969;-68
2021/12/24 05:09:41;;;;;;;66.68;34.22;;;;;;;-1.51;100.00;99577.13;5590393;31;34227;-68
2021/12/24 05:12:44;;;;;;;71.43;33.78;;;;;;;-1.55;100.00;99573.09;5590424;31;34748;-68
2021/12/24 05:15:52;;;;;;;72.00;33.97;;;;;;;-1.60;100.00;99575.19;5589569;31;34595;-68
2021/12/24 05:22:04;;;;;;;68.32;35.83;;;;;;;-1.51;100.00;99582.31;5590372;31;34344;-69
2021/12/24 05:25:07;;;;;;;72.43;36.80;;;;;;;-1.57;100.00;99590.56;5589897;31;34006;-68
2021/12/24 05:28:11;;;;;;;74.97;35.95;;;;;;;-1.60;100.00;99589.03;5589389;31;33939;-69
2021/12/24 05:31:21;;;;;;;74.47;39.88;;;;;;;-1.60;100.00;99569.97;5589860;31;34062;-68
2021/12/24 05:34:24;;;;;;;76.15;37.45;;;;;;;-1.58;100.00;99555.91;5589818;31;33969;-68
2021/12/24 05:37:27;;;;;;;72.35;37.95;;;;;;;-1.58;100.00;99553.31;5589093;31;33894;-68
2021/12/24 05:40:30;;;;;;;68.78;34.95;;;;;;;-1.53;100.00;99548.59;5590126;31;34628;-69
2021/12/24 05:43:34;;;;;;;70.50;35.28;;;;;;;-1.44;100.00;99553.13;5590109;31;35291;-68
2021/12/24 05:46:37;;;;;;;67.05;34.80;;;;;;;-1.35;100.00;99568.06;5589168;31;34199;-68
2021/12/24 05:49:42;;;;;;;74.03;36.70;;;;;;;-1.26;100.00;99578.75;5590053;31;34193;-68
2021/12/24 05:52:47;;;;;;;75.85;37.70;;;;;;;-1.32;100.00;99578.28;5589911;31;34641;-69
2021/12/24 05:55:50;;;;;;;75.80;39.25;;;;;;;-1.36;100.00;99583.81;5589779;31;34408;-68
2021/12/24 05:58:54;;;;;;;82.22;40.60;;;;;;;-1.40;100.00;99592.75;5589641;31;34556;-68
2021/12/24 06:01:57;;;;;;;73.07;35.08;;;;;;;-1.36;100.00;99591.63;5589948;31;34443;-68
2021/12/24 06:05:00;;;;;;;75.35;35.13;;;;;;;-1.34;100.00;99590.53;5589855;31;33994;-68
2021/12/24 06:08:04;;;;;;;77.15;38.20;;;;;;;-1.26;100.00;99594.38;5589546;31;34311;-69
2021/12/24 06:11:07;;;;;;;79.43;38.92;;;;;;;-1.34;100.00;99589.72;5589906;31;34591;-68
2021/12/24 06:14:12;;;;;;;75.82;35.85;;;;;;;-1.36;100.00;99584.66;5589486;31;35135;-68
2021/12/24 06:17:17;;;;;;;75.40;36.35;;;;;;;-1.26;100.00;99577.00;5589027;31;34017;-68
2021/12/24 06:20:21;;;;;;;66.03;34.30;;;;;;;-1.31;100.00;99582.50;5589206;31;35563;-68
2021/12/24 06:23:26;;;;;;;70.03;34.67;;;;;;;-1.35;100.00;99567.22;5589356;31;33957;-68
2021/12/24 06:26:29;;;;;;;73.65;36.08;;;;;;;-1.31;100.00;99551.28;5587916;31;34577;-69
2021/12/24 06:29:32;;;;;;;76.45;37.60;;;;;;;-1.34;100.00;99559.31;5588464;31;34053;-69
2021/12/24 06:32:35;;;;;;;74.93;38.58;;;;;;;-1.35;100.00;99557.66;5588437;31;34286;-68
2021/12/24 06:35:38;;;;;;;76.20;39.83;;;;;;;-1.33;100.00;99540.19;5588405;31;34654;-68
2021/12/24 06:38:41;;;;;;;75.15;37.13;;;;;;;-1.20;100.00;99549.66;5589409;31;35227;-68
2021/12/24 06:41:44;;;;;;;81.07;40.10;;;;;;;-1.19;100.00;99549.56;5589521;31;33982;-69
2021/12/24 06:44:46;;;;;;;74.85;37.85;;;;;;;-1.13;100.00;99543.91;5589289;31;34038;-69
2021/12/24 06:47:55;;;;;;;79.18;38.65;;;;;;;-1.08;100.00;99539.19;5588381;31;33917;-69
2021/12/24 06:50:58;;;;;;;72.00;35.25;;;;;;;-1.00;100.00;99530.78;5588863;31;34207;-69
2021/12/24 06:54:01;;;;;;;67.20;33.38;;;;;;;-0.95;100.00;99508.69;5589059;31;33948;-69
2021/12/24 06:57:04;;;;;;;74.30;34.92;;;;;;;-0.91;100.00;99527.50;5588886;31;33855;-69
2021/12/24 07:00:10;;;;;;;62.70;33.08;;;;;;;-0.83;100.00;99542.56;5587608;31;34374;-69
2021/12/24 07:03:13;;;;;;;65.47;33.58;;;;;;;-0.75;100.00;99511.53;5588769;31;34352;-68
2021/12/24 07:06:16;;;;;;;63.97;30.92;;;;;;;-0.69;100.00;99513.69;5588413;31;33932;-68
2021/12/24 07:09:19;;;;;;;57.62;29.73;;;;;;;-0.68;100.00;99524.00;5588467;31;33974;-68
2021/12/24 07:12:22;;;;;;;62.40;31.02;;;;;;;-0.56;100.00;99530.84;5588500;31;33911;-68
2021/12/24 07:15:24;;;;;;;54.80;29.37;;;;;;;-0.35;100.00;99545.78;5587637;31;34508;-69
2021/12/24 07:18:28;;;;;;;54.60;27.98;;;;;;;-0.23;100.00;99553.44;5587964;31;34094;-69
2021/12/24 07:21:30;;;;;;;54.42;28.58;;;;;;;-0.14;100.00;99547.50;5588304;31;34176;-69
2021/12/24 07:24:36;;;;;;;50.17;25.35;;;;;;;0.07;100.00;99552.81;5588451;31;33883;-68
2021/12/24 07:27:39;;;;;;;51.85;25.58;;;;;;;0.13;100.00;99551.50;5588276;31;33865;-69
2021/12/24 07:30:42;;;;;;;59.33;26.55;;;;;;;0.34;100.00;99537.56;5568735;32;33935;-68
2021/12/24 07:33:45;;;;;;;53.30;26.15;;;;;;;0.37;100.00;99542.56;5568480;32;34011;-68
2021/12/24 07:36:48;;;;;;;50.55;25.48;;;;;;;0.41;100.00;99548.34;5568459;32;34414;-69
2021/12/24 07:39:51;;;;;;;49.50;26.25;;;;;;;0.42;100.00;99556.06;5570185;32;35216;-69
2021/12/24 07:42:55;;;;;;;54.65;26.20;;;;;;;0.45;100.00;99547.16;5571227;32;33995;-69
2021/12/24 07:45:57;;;;;;;49.65;23.87;;;;;;;0.53;100.00;99536.94;5570943;32;33900;-69
2021/12/24 07:49:12;;;;;;;53.42;25.73;;;;;;;0.66;100.00;99516.69;5570868;32;34668;-68
2021/12/24 07:52:15;;;;;;;49.30;24.15;;;;;;;0.71;100.00;99514.53;5570924;32;35527;-69
2021/12/24 07:55:18;;;;;;;50.03;25.70;;;;;;;0.72;100.00;99529.25;5557398;32;33982;-69
2021/12/24 07:58:21;;;;;;;51.60;25.30;;;;;;;0.78;100.00;99504.41;5571177;32;34598;-69
2021/12/24 08:01:25;;;;;;;44.88;23.70;;;;;;;0.85;100.00;99505.56;5570098;32;34640;-69
2021/12/24 08:04:28;;;;;;;45.60;22.50;;;;;;;1.00;100.00;99517.34;5570799;32;33977;-69
2021/12/24 08:07:31;;;;;;;44.50;22.62;;;;;;;1.08;100.00;99508.84;5570807;32;34203;-69
2021/12/24 08:10:35;;;;;;;47.05;24.00;;;;;;;1.25;100.00;99503.88;5570621;32;34620;-69
2021/12/24 08:13:37;;;;;;;46.85;22.02;;;;;;;1.20;100.00;99503.44;5570691;32;33996;-69
2021/12/24 08:16:40;;;;;;;44.33;22.25;;;;;;;1.23;100.00;99507.56;5570747;32;34181;-69
2021/12/24 08:19:43;;;;;;;42.92;21.02;;;;;;;1.30;100.00;99493.88;5570814;32;34002;-69
2021/12/24 08:22:46;;;;;;;45.28;24.08;;;;;;;1.38;100.00;99479.31;5569672;32;34103;-69
2021/12/24 08:25:50;;;;;;;40.95;21.80;;;;;;;1.45;100.00;99472.59;5570656;32;34393;-69
2021/12/24 08:28:53;;;;;;;42.10;22.17;;;;;;;1.65;100.00;99454.22;5577574;31;33956;-69
2021/12/24 08:31:56;;;;;;;37.95;21.48;;;;;;;1.91;100.00;99457.16;5590228;31;34056;-69
2021/12/24 08:34:59;;;;;;;43.60;22.42;;;;;;;2.16;100.00;99471.53;5590316;31;34681;-69
2021/12/24 08:38:01;;;;;;;42.85;21.73;;;;;;;2.28;100.00;99467.78;5590339;31;33968;-69
2021/12/24 08:41:05;;;;;;;42.30;21.52;;;;;;;2.41;100.00;99455.28;5589946;31;34524;-69
2021/12/24 08:44:07;;;;;;;39.60;20.42;;;;;;;2.52;100.00;99460.34;5590216;31;34444;-70
2021/12/24 08:47:11;;;;;;;39.10;20.73;;;;;;;2.70;100.00;99454.41;5590140;31;34130;-69
2021/12/24 08:50:14;;;;;;;35.70;19.45;;;;;;;2.88;99.83;99456.19;5589786;31;33911;-70
2021/12/24 08:53:17;;;;;;;32.88;18.27;;;;;;;2.85;95.95;99453.84;5589991;31;34672;-69
2021/12/24 08:56:22;;;;;;;36.88;18.70;;;;;;;2.94;96.05;99453.00;5589217;31;33969;-69
2021/12/24 08:59:25;;;;;;;38.30;18.48;;;;;;;2.85;95.42;99448.59;5590046;31;33939;-69
2021/12/24 09:02:28;;;;;;;35.53;18.55;;;;;;;2.81;96.19;99455.06;5590000;31;34529;-69
2021/12/24 09:05:31;;;;;;;33.60;18.15;;;;;;;2.88;96.03;99447.47;5590115;31;33899;-69
2021/12/24 09:08:34;;;;;;;34.30;18.55;;;;;;;3.05;95.88;99446.72;5590187;31;34010;-69
2021/12/24 09:11:39;;;;;;;37.30;18.58;;;;;;;3.31;95.10;99467.91;5589761;31;35256;-69
2021/12/24 09:14:42;;;;;;;33.25;17.50;;;;;;;3.53;96.88;99462.31;5589740;31;33942;-69
2021/12/24 09:17:47;;;;;;;37.22;17.48;;;;;;;3.45;96.90;99459.56;5589813;31;34641;-69
2021/12/24 09:20:49;;;;;;;28.92;16.17;;;;;;;3.49;94.78;99459.13;5590188;31;34358;-69
2021/12/24 09:23:54;;;;;;;33.45;17.48;;;;;;;3.61;94.85;99465.00;5589851;31;34807;-70
2021/12/24 09:27:03;;;;;;;33.53;16.37;;;;;;;3.72;96.45;99449.09;5590187;31;34280;-69
2021/12/24 09:30:08;;;;;;;32.40;16.02;;;;;;;3.56;91.66;99442.81;5590036;31;34618;-69
2021/12/24 09:33:11;;;;;;;29.35;16.08;;;;;;;3.72;92.37;99443.00;5589799;31;34589;-69
2021/12/24 09:36:14;;;;;;;34.83;17.55;;;;;;;3.82;90.92;99443.78;5589909;31;35167;-69
2021/12/24 09:39:17;;;;;;;32.22;16.73;;;;;;;3.85;92.50;99438.22;5589435;31;34036;-69
2021/12/24 09:42:20;;;;;;;33.33;16.73;;;;;;;3.92;90.57;99439.31;5589588;31;34715;-69
2021/12/24 09:45:23;;;;;;;33.53;16.08;;;;;;;3.99;88.97;99432.47;5589375;31;34147;-69
2021/12/24 09:48:26;;;;;;;28.87;15.63;;;;;;;3.92;89.42;99421.72;5589586;31;33948;-69
2021/12/24 09:51:35;;;;;;;29.77;15.68;;;;;;;3.91;88.88;99411.41;5589120;31;33935;-68
2021/12/24 09:54:43;;;;;;;28.67;14.45;;;;;;;3.79;89.47;99402.09;5589529;31;34186;-69
2021/12/24 09:57:46;;;;;;;32.17;15.63;;;;;;;3.80;90.06;99383.59;5589501;31;34087;-69
2021/12/24 10:00:49;;;;;;;30.92;15.50;;;;;;;3.81;89.64;99380.00;5589178;31;34031;-69
2021/12/24 10:04:09;;;;;;;32.30;16.30;;;;;;;3.85;89.21;99385.75;5588824;31;33864;-69
2021/12/24 10:07:14;;;;;;;32.85;15.85;;;;;;;3.97;89.16;99384.53;5589218;31;33965;-68
2021/12/24 10:10:29;;;;;;;30.98;16.98;;;;;;;4.10;88.42;99377.16;5588510;31;34284;-69
2021/12/24 10:13:43;;;;;;;32.45;16.95;;;;;;;4.18;88.65;99376.37;5589304;31;33997;-69
2021/12/24 10:16:50;;;;;;;32.63;17.40;;;;;;;4.20;88.50;99380.50;5589422;31;34283;-69
2021/12/24 10:19:56;;;;;;;30.62;17.17;;;;;;;4.12;89.26;99379.59;5589540;31;33366;-68
2021/12/24 10:23:11;;;;;;;31.25;16.37;;;;;;;4.19;88.11;99367.53;5589208;31;34593;-69
2021/12/24 10:26:24;;;;;;;34.00;16.30;;;;;;;4.28;87.67;99364.00;5582410;31;209939;-69
2021/12/24 10:29:34;;;;;;;34.05;16.70;;;;;;;4.40;88.17;99360.16;5588173;31;34664;-68
2021/12/24 10:32:39;;;;;;;30.42;14.73;;;;;;;4.74;89.95;99365.47;5588435;31;34190;-67
2021/12/24 10:35:41;;;;;;;30.00;15.07;;;;;;;4.55;86.38;99368.31;5588349;31;33915;-67
2021/12/24 10:38:53;;;;;;;33.33;15.35;;;;;;;4.64;87.17;99357.69;5589068;31;34362;-67
2021/12/24 10:42:04;;;;;;;25.05;14.40;;;;;;;4.89;88.03;99363.09;5589356;31;33974;-67
2021/12/24 10:45:16;;;;;;;27.40;14.75;;;;;;;5.19;87.76;99362.56;5588906;31;33981;-67
2021/12/24 10:48:20;;;;;;;25.77;14.20;;;;;;;5.07;86.63;99358.56;5588949;31;34728;-69
2021/12/24 10:51:52;;;;;;;29.00;14.85;;;;;;;5.10;86.36;99345.94;5588639;31;34599;-69
2021/12/24 10:54:54;;;;;;;28.05;14.73;;;;;;;5.49;86.05;99358.56;5588719;31;33972;-68
2021/12/24 10:57:59;;;;;;;27.80;14.52;;;;;;;5.65;85.09;99345.44;5588396;31;34098;-67
2021/12/24 11:01:04;;;;;;;25.17;13.38;;;;;;;5.46;84.94;99351.00;5588672;31;34578;-67
2021/12/24 11:04:07;;;;;;;25.67;13.13;;;;;;;5.79;84.67;99357.12;5587829;31;34597;-67
2021/12/24 11:07:30;;;;;;;23.15;13.20;;;;;;;5.85;82.77;99356.50;5587845;31;33885;-67
2021/12/24 11:10:39;;;;;;;24.73;13.52;;;;;;;6.05;83.45;99363.13;5588623;31;34342;-67
2021/12/24 11:13:44;;;;;;;23.77;13.30;;;;;;;6.19;83.11;99365.12;5589094;31;34348;-67
2021/12/24 11:16:46;;;;;;;25.75;13.57;;;;;;;6.09;82.51;99354.75;5590795;31;34108;-67
2021/12/24 11:19:51;;;;;;;28.77;13.43;;;;;;;6.38;81.15;99356.88;5590992;31;34338;-67
2021/12/24 11:23:11;;;;;;;25.33;14.02;;;;;;;6.78;81.77;99358.59;5591042;31;34011;-67
2021/12/24 11:26:15;;;;;;;23.35;13.43;;;;;;;6.73;81.26;99347.75;5590899;31;34049;-68
2021/12/24 11:29:17;;;;;;;28.85;14.07;;;;;;;6.71;80.63;99356.81;5590582;31;34866;-67
2021/12/24 11:32:21;;;;;;;26.20;13.23;;;;;;;6.69;83.46;99356.16;5590834;31;34071;-69
2021/12/24 11:35:25;;;;;;;22.90;13.20;;;;;;;6.48;84.07;99359.34;5590836;31;33887;-70
2021/12/24 11:38:32;;;;;;;25.77;13.02;;;;;;;6.42;85.82;99352.91;5590752;31;34002;-69
2021/12/24 11:41:37;;;;;;;22.13;12.05;;;;;;;6.35;86.88;99338.75;5589963;31;33976;-68
2021/12/24 11:44:40;;;;;;;28.75;12.13;;;;;;;6.27;87.71;99337.94;5590669;31;34402;-68
2021/12/24 11:47:44;;;;;;;23.85;12.27;;;;;;;6.31;89.41;99333.97;5590845;31;35205;-68
2021/12/24 11:50:48;;;;;;;22.52;12.90;;;;;;;6.29;90.47;99341.25;5590851;31;34039;-71
2021/12/24 11:53:53;;;;;;;26.87;13.38;;;;;;;6.33;93.54;99326.75;5590723;31;34616;-70
2021/12/24 11:56:59;;;;;;;27.05;12.82;;;;;;;6.49;97.01;99331.97;5590699;31;33993;-70
2021/12/24 12:00:10;;;;;;;26.02;13.18;;;;;;;6.61;95.29;99316.66;5590633;31;34867;-70
2021/12/24 12:03:32;;;;;;;20.00;11.75;;;;;;;6.59;94.45;99316.00;5590037;31;33998;-69
2021/12/24 12:06:35;;;;;;;23.42;12.20;;;;;;;6.54;95.98;99305.94;5590669;31;33915;-69
2021/12/24 12:09:42;;;;;;;27.67;13.57;;;;;;;6.46;96.22;99303.34;5590590;31;34428;-69
2021/12/24 12:12:45;;;;;;;21.58;12.85;;;;;;;6.39;100.00;99307.66;5590509;31;34581;-68
2021/12/24 12:15:57;;;;;;;21.95;11.98;;;;;;;6.48;98.88;99320.66;5590632;31;34050;-67
2021/12/24 12:19:45;;;;;;;24.48;13.00;;;;;;;6.56;96.77;99325.06;5590303;31;35244;-67
2021/12/24 12:22:55;;;;;;;27.20;11.98;;;;;;;6.70;96.59;99321.75;5590124;31;34073;-67
2021/12/24 12:25:58;;;;;;;23.67;12.02;;;;;;;6.90;97.57;99320.38;5589993;31;34722;-67
2021/12/24 12:29:19;;;;;;;25.92;11.48;;;;;;;6.99;94.32;99318.50;5590534;31;34039;-67
2021/12/24 12:32:24;;;;;;;17.70;10.40;;;;;;;6.98;92.86;99320.31;5590296;31;34742;-68
2021/12/24 12:35:51;;;;;;;19.73;11.15;;;;;;;6.88;91.40;99322.34;5590303;31;34345;-67
2021/12/24 12:38:53;;;;;;;21.55;11.20;;;;;;;6.85;92.09;99329.78;5590280;31;34250;-67
2021/12/24 12:41:57;;;;;;;18.73;10.57;;;;;;;6.87;93.47;99325.16;5590285;31;33938;-67
2021/12/24 12:45:00;;;;;;;19.62;10.20;;;;;;;6.83;92.63;99337.00;5590271;31;34226;-68
2021/12/24 12:48:05;;;;;;;18.65;10.02;;;;;;;6.83;92.66;99331.75;5590294;31;33806;-68
2021/12/24 12:51:08;;;;;;;22.98;10.70;;;;;;;6.87;92.52;99330.44;5590188;31;34017;-67
2021/12/24 12:54:27;;;;;;;18.37;10.10;;;;;;;6.80;91.64;99330.28;5590179;31;34308;-67
2021/12/24 12:57:36;;;;;;;17.95;10.30;;;;;;;6.76;92.47;99328.97;5590205;31;34648;-69
2021/12/24 13:00:39;;;;;;;19.67;9.48;;;;;;;6.67;92.54;99316.00;5590135;31;33868;-68
2021/12/24 13:04:00;;;;;;;20.30;10.23;;;;;;;6.65;93.11;99326.69;5590335;31;34850;-67
2021/12/24 13:07:03;;;;;;;16.62;9.90;;;;;;;6.57;93.32;99320.63;5590183;31;34664;-67
2021/12/24 13:10:05;;;;;;;17.05;9.68;;;;;;;6.49;94.04;99324.06;5590403;31;34005;-67
2021/12/24 13:13:08;;;;;;;20.10;10.18;;;;;;;6.46;94.34;99312.06;5590046;31;34132;-67
2021/12/24 13:16:16;;;;;;;23.12;10.75;;;;;;;6.52;95.01;99310.59;5590190;31;34601;-68
2021/12/24 13:22:44;;;;;;;20.62;10.45;;;;;;;6.56;95.41;99322.44;5590089;31;34609;-67
2021/12/24 13:25:47;;;;;;;20.35;9.35;;;;;;;6.53;96.16;99331.47;5590327;31;33933;-67
2021/12/24 13:29:16;;;;;;;21.33;10.02;;;;;;;6.55;95.92;99326.06;5589903;31;34129;-70
2021/12/24 13:32:19;;;;;;;20.92;9.88;;;;;;;6.54;97.03;99324.41;5589902;31;34265;-70
2021/12/24 13:35:41;;;;;;;19.05;10.15;;;;;;;6.45;98.07;99328.88;5589673;31;34116;-70
2021/12/24 13:38:44;;;;;;;16.77;8.73;;;;;;;6.41;98.56;99335.47;5589409;31;34015;-68
2021/12/24 13:41:47;;;;;;;21.83;10.05;;;;;;;6.32;100.00;99339.09;5589664;31;34260;-67
2021/12/24 13:45:02;;;;;;;21.98;10.75;;;;;;;6.31;100.00;99342.72;5589026;31;33968;-69
2021/12/24 13:48:17;;;;;;;18.75;9.63;;;;;;;6.36;100.00;99356.22;5589918;31;34080;-68
2021/12/24 13:54:34;;;;;;;21.92;9.00;;;;;;;6.30;100.00;99359.50;5590015;31;34106;-67
2021/12/24 13:57:37;;;;;;;17.17;8.75;;;;;;;6.32;100.00;99354.91;5589660;31;34456;-68
2021/12/24 14:00:47;;;;;;;14.90;8.93;;;;;;;6.39;100.00;99357.72;5589605;31;34359;-67
2021/12/24 14:03:50;;;;;;;15.80;8.10;;;;;;;6.39;100.00;99345.31;5589556;31;35251;-67
2021/12/24 14:06:55;;;;;;;18.45;9.13;;;;;;;6.52;99.94;99355.38;5589882;31;34194;-67
2021/12/24 14:09:58;;;;;;;16.98;9.20;;;;;;;6.61;98.23;99357.00;5589381;31;35149;-67
2021/12/24 14:13:07;;;;;;;18.42;8.50;;;;;;;6.57;98.01;99354.88;5589719;31;34137;-67
2021/12/24 14:16:17;;;;;;;17.87;9.32;;;;;;;6.56;97.93;99359.31;5589191;31;34063;-67
2021/12/24 14:22:34;;;;;;;17.35;8.68;;;;;;;6.62;97.15;99355.19;5589273;31;33889;-67
2021/12/24 14:25:37;;;;;;;15.18;8.13;;;;;;;6.67;96.40;99350.25;5589439;31;34059;-67
2021/12/24 14:28:51;;;;;;;17.15;8.10;;;;;;;6.73;95.74;99357.50;5589153;31;34038;-67
2021/12/24 14:31:57;;;;;;;13.80;7.80;;;;;;;6.79;95.28;99357.62;5589380;31;34339;-67
2021/12/24 14:35:22;;;;;;;17.52;8.20;;;;;;;6.86;95.01;99368.34;5588721;31;34606;-67
2021/12/24 14:38:25;;;;;;;14.50;7.93;;;;;;;6.78;95.86;99370.97;5589118;31;34216;-68
2021/12/24 14:41:28;;;;;;;16.77;7.72;;;;;;;6.71;96.66;99359.47;5589522;31;34591;-68
2021/12/24 14:44:31;;;;;;;14.68;8.13;;;;;;;6.67;97.00;99369.53;5589164;31;34044;-68
2021/12/24 14:47:33;;;;;;;14.55;7.68;;;;;;;6.56;99.56;99375.13;5588884;31;34350;-68
2021/12/24 14:51:00;;;;;;;15.85;7.90;;;;;;;6.42;100.00;99358.19;5588446;31;34612;-68
2021/12/24 14:54:05;;;;;;;14.87;8.57;;;;;;;6.35;100.00;99356.38;5588842;31;34608;-67
2021/12/24 14:57:08;;;;;;;15.95;8.43;;;;;;;6.36;100.00;99360.66;5588851;31;33956;-67
2021/12/24 15:00:13;;;;;;;16.17;8.35;;;;;;;6.35;100.00;99361.63;5588843;31;34607;-68
2021/12/24 15:03:17;;;;;;;15.32;7.72;;;;;;;6.28;100.00;99353.59;5588783;31;35175;-67
2021/12/24 15:06:43;;;;;;;15.38;8.30;;;;;;;6.36;99.64;99371.19;5589064;31;34611;-68
2021/12/24 15:09:46;;;;;;;15.43;8.07;;;;;;;6.34;100.00;99366.06;5588877;31;34176;-67
2021/12/24 15:12:59;;;;;;;13.55;7.82;;;;;;;6.46;98.67;99366.56;5588591;31;34057;-68
2021/12/24 15:16:02;;;;;;;14.07;8.13;;;;;;;6.60;96.74;99365.91;5588558;31;34062;-68
2021/12/24 15:19:06;;;;;;;12.85;7.68;;;;;;;6.56;96.99;99356.69;5588676;31;34567;-68
2021/12/24 15:22:08;;;;;;;16.42;7.47;;;;;;;6.53;97.27;99355.19;5588616;31;33935;-68
2021/12/24 15:25:11;;;;;;;14.43;7.43;;;;;;;6.55;97.19;99347.97;5588781;31;34277;-68
2021/12/24 15:28:19;;;;;;;16.77;8.25;;;;;;;6.40;98.37;99360.16;5588621;31;34722;-68
2021/12/24 15:31:24;;;;;;;18.48;7.90;;;;;;;6.33;100.00;99368.91;5588335;31;34067;-68
2021/12/24 15:34:26;;;;;;;14.77;8.15;;;;;;;6.31;99.42;99353.25;5588600;31;33981;-68
2021/12/24 15:37:29;;;;;;;16.27;7.80;;;;;;;6.52;98.09;99355.38;5588510;31;33859;-70
2021/12/24 15:40:34;;;;;;;14.55;7.80;;;;;;;6.50;98.10;99349.44;5588043;31;34424;-68
2021/12/24 15:43:47;;;;;;;14.35;7.70;;;;;;;6.62;96.50;99345.50;5588092;31;33948;-68
2021/12/24 15:46:50;;;;;;;15.45;8.48;;;;;;;6.69;95.81;99341.16;5588333;31;33968;-68
2021/12/24 15:49:52;;;;;;;15.57;8.13;;;;;;;6.74;95.72;99348.56;5587951;31;34055;-70
2021/12/24 15:52:55;;;;;;;16.00;7.95;;;;;;;6.73;96.01;99349.59;5587908;31;33970;-67
2021/12/24 15:56:01;;;;;;;12.80;7.93;;;;;;;6.68;96.02;99344.78;5587077;31;33872;-68
2021/12/24 15:59:04;;;;;;;16.77;8.65;;;;;;;6.70;96.33;99356.00;5587941;31;34006;-70
2021/12/24 16:02:07;;;;;;;17.17;8.48;;;;;;;6.72;96.71;99358.47;5590739;31;35314;-68
2021/12/24 16:05:10;;;;;;;14.90;7.70;;;;;;;6.57;98.62;99376.78;5590699;31;33871;-69
2021/12/24 16:08:13;;;;;;;16.65;9.07;;;;;;;6.70;97.01;99376.25;5589701;31;33895;-68
2021/12/24 16:11:16;;;;;;;12.65;7.72;;;;;;;6.85;96.13;99380.69;5590519;31;34873;-69
2021/12/24 16:14:20;;;;;;;18.70;8.20;;;;;;;6.91;95.49;99372.12;5590386;31;33971;-68
2021/12/24 16:17:23;;;;;;;16.00;7.82;;;;;;;6.92;94.62;99373.72;5590512;31;34051;-70
2021/12/24 16:20:26;;;;;;;15.60;8.82;;;;;;;6.92;94.12;99368.47;5590552;31;34107;-70
2021/12/24 16:23:29;;;;;;;17.73;8.63;;;;;;;6.92;93.92;99367.66;5590233;31;34342;-69